createdAt,value
2018-07-10T00:02:19.991Z,21.53
2018-07-10T00:05:20.196Z,25.40
2018-07-10T00:07:59.428Z,14.13
2018-07-10T00:11:33.140Z,15.80
2018-07-10T00:14:03.145Z,6.80
2018-07-10T00:16:32.445Z,10.60
2018-07-10T00:19:01.812Z,13.47
2018-07-10T00:21:31.200Z,9.67
2018-07-10T00:24:03.814Z,10.23
2018-07-10T00:26:33.479Z,8.13
2018-07-10T00:29:03.057Z,14.20
2018-07-10T00:31:35.825Z,16.07
2018-07-10T00:34:05.375Z,17.13
2018-07-10T00:36:36.346Z,8.40
2018-07-10T00:39:09.546Z,10.60
2018-07-10T00:41:39.924Z,10.80
2018-07-10T00:44:09.499Z,13.03
2018-07-10T00:46:40.030Z,17.20
2018-07-10T00:49:09.523Z,12.30
2018-07-10T00:51:40.133Z,12.33
2018-07-10T00:54:09.752Z,10.73
2018-07-10T00:56:39.119Z,14.83
2018-07-10T00:59:11.576Z,11.03
2018-07-10T01:01:41.085Z,17.47
2018-07-10T01:04:11.346Z,12.53
2018-07-10T01:06:41.277Z,21.27
2018-07-10T01:09:14.320Z,8.37
2018-07-10T01:11:43.692Z,10.87
2018-07-10T01:14:13.007Z,10.93
2018-07-10T01:16:42.474Z,9.57
2018-07-10T01:19:16.969Z,29.33
2018-07-10T01:21:47.725Z,11.80
2018-07-10T01:24:18.265Z,17.33
2018-07-10T01:26:50.737Z,17.00
2018-07-10T01:29:27.640Z,19.03
2018-07-10T01:31:57.174Z,24.93
2018-07-10T01:34:26.557Z,22.13
2018-07-10T01:36:58.378Z,14.50
2018-07-10T01:39:27.549Z,20.87
2018-07-10T01:41:56.974Z,16.97
2018-07-10T01:44:26.262Z,19.20
2018-07-10T01:46:58.931Z,12.10
2018-07-10T01:49:28.695Z,16.17
2018-07-10T01:52:00.176Z,11.00
2018-07-10T01:54:29.523Z,8.60
2018-07-10T01:57:01.849Z,11.20
2018-07-10T01:59:31.496Z,12.23
2018-07-10T02:02:00.858Z,11.20
2018-07-10T02:04:30.225Z,18.10
2018-07-10T02:07:02.794Z,6.73
2018-07-10T02:09:32.036Z,10.13
2018-07-10T02:12:04.928Z,11.43
2018-07-10T02:14:35.291Z,13.10
2018-07-10T02:17:05.952Z,8.00
2018-07-10T02:19:35.492Z,22.10
2018-07-10T02:22:05.920Z,7.93
2018-07-10T02:24:36.907Z,15.00
2018-07-10T02:27:09.345Z,13.40
2018-07-10T02:29:40.377Z,17.80
2018-07-10T02:32:10.481Z,15.73
2018-07-10T02:34:42.889Z,19.37
2018-07-10T02:37:15.911Z,10.70
2018-07-10T02:39:45.803Z,15.87
2018-07-10T02:42:16.196Z,14.20
2018-07-10T02:44:46.475Z,9.67
2018-07-10T02:47:15.767Z,9.27
2018-07-10T02:49:45.100Z,12.80
2018-07-10T02:52:14.398Z,11.50
2018-07-10T02:54:46.165Z,23.07
2018-07-10T02:57:16.086Z,16.53
2018-07-10T02:59:46.776Z,10.57
2018-07-10T03:02:23.766Z,11.13
2018-07-10T03:04:59.748Z,15.97
2018-07-10T03:07:29.695Z,31.17
2018-07-10T03:10:02.431Z,17.83
2018-07-10T03:12:33.447Z,15.03
2018-07-10T03:15:05.880Z,14.20
2018-07-10T03:17:36.941Z,19.90
2018-07-10T03:20:06.961Z,33.43
2018-07-10T03:22:37.462Z,13.47
2018-07-10T03:25:08.870Z,20.90
2018-07-10T03:27:38.219Z,16.00
2018-07-10T03:30:07.495Z,11.93
2018-07-10T03:32:36.836Z,34.23
2018-07-10T03:35:06.129Z,8.63
2018-07-10T03:37:35.438Z,18.30
2018-07-10T03:40:04.794Z,17.07
2018-07-10T03:42:34.117Z,17.13
2018-07-10T03:45:03.412Z,14.87
2018-07-10T03:47:32.727Z,15.03
2018-07-10T03:50:02.064Z,14.00
2018-07-10T03:52:34.967Z,27.93
2018-07-10T03:55:12.848Z,19.97
2018-07-10T03:57:42.200Z,16.43
2018-07-10T04:00:13.246Z,22.50
2018-07-10T04:02:44.585Z,18.00
2018-07-10T04:05:14.149Z,19.33
2018-07-10T04:07:43.768Z,23.80
2018-07-10T04:10:14.292Z,22.90
2018-07-10T04:12:45.503Z,14.03
2018-07-10T04:15:14.877Z,19.20
2018-07-10T04:18:20.686Z,26.00
2018-07-10T04:20:58.961Z,32.03
2018-07-10T04:23:36.000Z,27.33
2018-07-10T04:26:13.032Z,19.77
2018-07-10T04:28:42.452Z,25.10
2018-07-10T04:32:23.416Z,29.33
2018-07-10T04:34:52.713Z,23.47
2018-07-10T04:37:22.120Z,27.27
2018-07-10T04:39:51.448Z,23.50
2018-07-10T04:42:28.867Z,28.67
2018-07-10T04:45:14.885Z,25.23
2018-07-10T04:47:47.990Z,20.10
2018-07-10T04:50:22.040Z,9.60
2018-07-10T04:52:57.953Z,18.90
2018-07-10T04:55:27.404Z,20.53
2018-07-10T04:58:00.092Z,15.47
2018-07-10T05:00:30.125Z,10.30
2018-07-10T05:02:59.945Z,16.60
2018-07-10T05:05:31.055Z,20.97
2018-07-10T05:08:01.134Z,18.33
2018-07-10T05:10:31.709Z,10.27
2018-07-10T05:13:02.895Z,12.30
2018-07-10T05:15:32.320Z,13.33
2018-07-10T05:18:09.594Z,22.10
2018-07-10T05:20:42.868Z,16.73
2018-07-10T05:23:13.312Z,9.27
2018-07-10T05:25:46.314Z,12.37
2018-07-10T05:28:15.683Z,17.23
2018-07-10T05:30:45.058Z,10.87
2018-07-10T05:33:15.675Z,10.80
2018-07-10T05:35:45.550Z,6.77
2018-07-10T05:38:15.498Z,8.20
2018-07-10T05:40:44.809Z,8.03
2018-07-10T05:43:15.441Z,10.20
2018-07-10T05:45:44.824Z,16.20
2018-07-10T05:48:16.300Z,13.60
2018-07-10T05:50:45.617Z,16.90
2018-07-10T05:53:14.928Z,11.53
2018-07-10T05:55:48.429Z,14.30
2018-07-10T05:58:17.725Z,9.00
2018-07-10T06:00:47.057Z,12.00
2018-07-10T06:03:16.334Z,15.40
2018-07-10T06:05:45.660Z,16.07
2018-07-10T06:08:15.061Z,11.90
2018-07-10T06:10:44.405Z,13.90
2018-07-10T06:13:13.764Z,17.83
2018-07-10T06:15:43.111Z,10.20
2018-07-10T06:18:12.379Z,11.13
2018-07-10T06:20:41.867Z,7.70
2018-07-10T06:23:11.797Z,10.33
2018-07-10T06:25:41.275Z,5.60
2018-07-10T06:28:16.686Z,16.20
2018-07-10T06:30:46.211Z,5.03
2018-07-10T06:33:21.550Z,8.13
2018-07-10T06:36:00.096Z,8.23
2018-07-10T06:38:29.632Z,7.90
2018-07-10T06:40:58.944Z,10.00
2018-07-10T06:43:38.832Z,5.20
2018-07-10T06:46:08.123Z,8.20
2018-07-10T06:48:41.437Z,7.30
2018-07-10T06:51:15.868Z,2.93
2018-07-10T06:53:47.506Z,4.50
2018-07-10T06:56:24.382Z,6.57
2018-07-10T06:58:53.797Z,12.53
2018-07-10T07:01:23.109Z,7.60
2018-07-10T07:03:55.078Z,3.63
2018-07-10T07:06:24.915Z,9.93
2018-07-10T07:08:54.459Z,4.40
2018-07-10T07:11:23.869Z,5.57
2018-07-10T07:13:54.180Z,8.60
2018-07-10T07:16:23.705Z,7.30
2018-07-10T07:18:53.107Z,5.53
2018-07-10T07:21:22.494Z,4.70
2018-07-10T07:23:52.847Z,5.60
2018-07-10T07:26:22.253Z,8.60
2018-07-10T07:28:52.030Z,6.20
2018-07-10T07:31:21.397Z,9.80
2018-07-10T07:33:50.736Z,10.97
2018-07-10T07:36:20.065Z,6.77
2018-07-10T07:38:49.914Z,7.07
2018-07-10T07:41:19.280Z,2.40
2018-07-10T07:43:48.803Z,6.23
2018-07-10T07:46:18.507Z,2.80
2018-07-10T07:48:47.943Z,4.83
2018-07-10T07:51:17.312Z,3.37
2018-07-10T07:53:46.727Z,8.97
2018-07-10T07:56:16.052Z,6.10
2018-07-10T07:58:46.081Z,5.60
2018-07-10T08:01:15.528Z,9.50
2018-07-10T08:03:44.943Z,12.67
2018-07-10T08:06:14.400Z,4.20
2018-07-10T08:08:43.736Z,2.53
2018-07-10T08:11:13.216Z,2.87
2018-07-10T08:13:42.611Z,6.30
2018-07-10T08:16:12.103Z,10.03
2018-07-10T08:18:41.678Z,5.40
2018-07-10T08:21:11.169Z,4.27
2018-07-10T08:23:40.725Z,3.70
2018-07-10T08:26:10.117Z,4.93
2018-07-10T08:28:39.515Z,9.47
2018-07-10T08:31:08.813Z,5.03
2018-07-10T08:33:38.411Z,14.90
2018-07-10T08:36:07.852Z,5.10
2018-07-10T08:38:40.040Z,3.33
2018-07-10T08:41:14.479Z,7.40
2018-07-10T08:43:45.185Z,2.90
2018-07-10T08:46:16.012Z,5.67
2018-07-10T08:48:47.651Z,12.10
2018-07-10T08:51:17.276Z,4.13
2018-07-10T08:53:47.241Z,2.20
2018-07-10T08:56:16.930Z,6.40
2018-07-10T08:58:46.603Z,4.57
2018-07-10T09:01:16.064Z,9.57
2018-07-10T09:03:45.420Z,6.80
2018-07-10T09:06:14.821Z,18.33
2018-07-10T09:08:44.316Z,11.80
2018-07-10T09:11:13.999Z,9.03
2018-07-10T09:13:43.388Z,3.33
2018-07-10T09:16:15.494Z,9.70
2018-07-10T09:18:46.930Z,11.40
2018-07-10T09:21:18.714Z,4.80
2018-07-10T09:23:48.844Z,6.47
2018-07-10T09:26:18.650Z,3.20
2018-07-10T09:28:48.303Z,15.43
2018-07-10T09:31:17.731Z,3.90
2018-07-10T09:33:47.851Z,9.30
2018-07-10T09:36:18.325Z,7.13
2018-07-10T09:38:47.699Z,6.53
2018-07-10T09:41:19.919Z,3.70
2018-07-10T09:43:49.775Z,8.10
2018-07-10T09:46:19.328Z,4.67
2018-07-10T09:48:48.915Z,4.50
2018-07-10T09:51:18.409Z,10.17
2018-07-10T09:53:47.812Z,9.60
2018-07-10T09:56:17.232Z,2.93
2018-07-10T09:58:46.805Z,3.50
2018-07-10T10:01:22.041Z,3.37
2018-07-10T10:03:51.607Z,3.53
2018-07-10T10:06:20.929Z,6.00
2018-07-10T10:08:50.459Z,3.73
2018-07-10T10:11:19.808Z,3.23
2018-07-10T10:13:49.123Z,3.73
2018-07-10T10:16:18.523Z,5.23
2018-07-10T10:18:50.208Z,3.93
2018-07-10T10:21:19.844Z,3.13
2018-07-10T10:23:49.361Z,5.63
2018-07-10T10:26:19.983Z,3.57
2018-07-10T10:28:50.575Z,3.57
2018-07-10T10:31:20.071Z,3.77
2018-07-10T10:33:49.577Z,3.87
2018-07-10T10:36:19.041Z,5.47
2018-07-10T10:38:48.906Z,6.80
2018-07-10T10:41:19.386Z,5.83
2018-07-10T10:43:49.552Z,6.10
2018-07-10T10:46:21.346Z,6.10
2018-07-10T10:48:55.377Z,12.70
2018-07-10T10:51:27.281Z,8.70
2018-07-10T10:53:56.615Z,9.07
2018-07-10T10:56:27.712Z,7.97
2018-07-10T10:58:57.845Z,11.17
2018-07-10T11:01:27.684Z,10.03
2018-07-10T11:03:57.746Z,8.30
2018-07-10T11:06:28.735Z,9.27
2018-07-10T11:08:58.353Z,6.63
2018-07-10T11:11:29.073Z,8.67
2018-07-10T11:13:58.433Z,11.10
2018-07-10T11:16:28.007Z,11.03
2018-07-10T11:19:02.556Z,10.07
2018-07-10T11:22:10.476Z,7.83
2018-07-10T11:25:15.033Z,7.90
2018-07-10T11:28:05.242Z,6.93
2018-07-10T11:30:35.115Z,7.10
2018-07-10T11:33:05.483Z,4.40
2018-07-10T11:35:35.639Z,6.17
2018-07-10T11:38:08.260Z,9.10
2018-07-10T11:40:39.346Z,6.43
2018-07-10T11:43:09.857Z,6.30
2018-07-10T11:45:39.532Z,5.63
2018-07-10T11:48:09.315Z,5.40
2018-07-10T11:50:38.790Z,6.83
2018-07-10T11:53:08.153Z,8.57
2018-07-10T11:55:37.896Z,7.53
2018-07-10T11:58:08.043Z,8.63
2018-07-10T12:00:37.555Z,6.80
2018-07-10T12:03:07.551Z,7.60
2018-07-10T12:05:41.222Z,9.53
2018-07-10T12:08:14.351Z,12.17
2018-07-10T12:10:47.918Z,5.73
2018-07-10T12:13:17.579Z,6.93
2018-07-10T12:15:48.175Z,5.70
2018-07-10T12:18:17.620Z,6.43
2018-07-10T12:20:47.037Z,5.53
2018-07-10T12:23:16.657Z,6.17
2018-07-10T12:25:46.245Z,4.50
2018-07-10T12:28:16.635Z,4.73
2018-07-10T12:30:48.954Z,7.60
2018-07-10T12:33:18.500Z,4.03
2018-07-10T12:35:48.493Z,4.10
2018-07-10T12:38:21.353Z,4.00
2018-07-10T12:40:50.772Z,3.70
2018-07-10T12:43:20.077Z,6.00
2018-07-10T12:45:49.622Z,4.83
2018-07-10T12:48:23.626Z,4.70
2018-07-10T12:50:54.780Z,6.90
2018-07-10T12:53:25.380Z,8.93
2018-07-10T12:55:56.752Z,3.20
2018-07-10T12:58:29.896Z,1.90
2018-07-10T13:00:59.857Z,3.80
2018-07-10T13:03:33.660Z,2.70
2018-07-10T13:06:03.435Z,6.93
2018-07-10T13:08:36.038Z,2.00
2018-07-10T13:11:05.553Z,2.17
2018-07-10T13:13:34.971Z,3.47
2018-07-10T13:16:04.257Z,2.40
2018-07-10T13:18:34.332Z,3.73
2018-07-10T13:21:07.613Z,8.20
2018-07-10T13:23:43.355Z,9.37
2018-07-10T13:26:14.051Z,9.00
2018-07-10T13:28:43.495Z,8.17
2018-07-10T13:31:13.566Z,7.87
2018-07-10T13:33:44.892Z,7.93
2018-07-10T13:36:14.787Z,12.90
2018-07-10T13:38:44.786Z,12.27
2018-07-10T13:41:18.364Z,10.30
2018-07-10T13:43:47.813Z,11.97
2018-07-10T13:46:17.399Z,17.77
2018-07-10T13:48:47.975Z,15.83
2018-07-10T13:51:17.494Z,8.77
2018-07-10T13:53:48.209Z,12.70
2018-07-10T13:56:17.595Z,11.10
2018-07-10T13:58:48.525Z,13.60
2018-07-10T14:01:20.389Z,8.83
2018-07-10T14:03:49.832Z,8.23
2018-07-10T14:06:20.269Z,13.30
2018-07-10T14:08:49.633Z,15.03
2018-07-10T14:11:19.005Z,17.33
2018-07-10T14:13:48.399Z,13.73
2018-07-10T14:16:17.739Z,13.07
2018-07-10T14:18:51.019Z,13.73
2018-07-10T14:21:21.489Z,12.10
2018-07-10T14:23:50.820Z,12.93
2018-07-10T14:26:20.137Z,12.40
2018-07-10T14:28:49.652Z,14.00
2018-07-10T14:31:19.032Z,21.93
2018-07-10T14:33:48.410Z,13.43
2018-07-10T14:36:17.726Z,15.13
2018-07-10T14:38:47.068Z,21.77
2018-07-10T14:41:16.417Z,17.73
2018-07-10T14:43:47.212Z,19.57
2018-07-10T14:46:18.934Z,17.13
2018-07-10T14:48:56.874Z,20.17
2018-07-10T14:51:30.693Z,18.23
2018-07-10T14:54:00.030Z,17.63
2018-07-10T14:56:29.421Z,19.60
2018-07-10T14:58:59.093Z,25.00
2018-07-10T15:01:28.524Z,21.50
2018-07-10T15:03:58.127Z,30.10
2018-07-10T15:06:27.590Z,25.80
2018-07-10T15:08:56.977Z,19.87
2018-07-10T15:11:26.384Z,19.10
2018-07-10T15:14:02.873Z,16.63
2018-07-10T15:16:37.582Z,18.40
2018-07-10T15:19:07.145Z,21.30
2018-07-10T15:21:36.568Z,23.50
2018-07-10T15:24:07.097Z,19.50
2018-07-10T15:26:36.427Z,21.80
2018-07-10T15:29:05.729Z,24.87
2018-07-10T15:31:35.107Z,21.20
2018-07-10T15:36:43.479Z,25.37
2018-07-10T15:39:12.851Z,24.20
2018-07-10T15:41:42.391Z,23.30
2018-07-10T15:44:11.752Z,28.07
2018-07-10T15:46:41.159Z,27.17
2018-07-10T15:49:10.552Z,28.00
2018-07-10T15:51:39.967Z,21.53
2018-07-10T15:54:09.331Z,28.57
2018-07-10T15:56:38.702Z,27.73
2018-07-10T15:59:08.128Z,16.87
2018-07-10T16:01:37.479Z,23.90
2018-07-10T16:04:06.937Z,20.63
2018-07-10T16:06:36.857Z,16.70
2018-07-10T16:09:15.821Z,13.97
2018-07-10T16:11:45.811Z,14.33
2018-07-10T16:14:15.185Z,21.50
2018-07-10T16:16:44.432Z,13.50
2018-07-10T16:19:17.824Z,17.80
2018-07-10T16:21:55.424Z,14.30
2018-07-10T16:24:25.100Z,17.70
2018-07-10T16:26:54.834Z,10.70
2018-07-10T16:29:24.806Z,8.47
2018-07-10T16:31:57.342Z,9.53
2018-07-10T16:34:26.867Z,10.27
2018-07-10T16:36:56.471Z,8.83
2018-07-10T16:39:25.835Z,17.43
2018-07-10T16:42:59.995Z,7.00
2018-07-10T16:45:32.640Z,7.97
2018-07-10T16:48:26.038Z,6.90
2018-07-10T16:51:05.201Z,7.13
2018-07-10T16:53:35.688Z,7.40
2018-07-10T16:56:05.167Z,5.87
2018-07-10T16:58:37.650Z,5.80
2018-07-10T17:01:07.233Z,5.53
2018-07-10T17:03:36.792Z,6.77
2018-07-10T17:06:05.934Z,4.80
2018-07-10T17:08:35.153Z,5.57
2018-07-10T17:11:04.637Z,4.07
2018-07-10T17:13:34.029Z,4.23
2018-07-10T17:16:03.386Z,7.30
2018-07-10T17:18:34.761Z,8.17
2018-07-10T17:21:04.148Z,7.40
2018-07-10T17:23:33.559Z,4.63
2018-07-10T17:26:02.915Z,6.80
2018-07-10T17:28:32.333Z,3.73
2018-07-10T17:31:01.740Z,5.10
2018-07-10T17:33:31.143Z,6.10
2018-07-10T17:36:00.564Z,4.77
2018-07-10T17:38:30.446Z,4.87
2018-07-10T17:41:00.125Z,3.90
2018-07-10T17:43:29.474Z,4.07
2018-07-10T17:45:58.924Z,3.57
2018-07-10T17:48:28.637Z,3.67
2018-07-10T17:50:58.015Z,5.10
2018-07-10T17:53:27.494Z,4.63
2018-07-10T17:55:57.084Z,4.40
2018-07-10T17:58:27.868Z,5.33
2018-07-10T18:00:57.314Z,5.80
2018-07-10T18:03:26.676Z,5.27
2018-07-10T18:05:56.028Z,5.33
2018-07-10T18:08:26.533Z,6.17
2018-07-10T18:10:55.866Z,8.47
2018-07-10T18:13:25.285Z,6.57
2018-07-10T18:15:54.715Z,8.10
2018-07-10T18:18:24.060Z,6.30
2018-07-10T18:20:53.507Z,8.00
2018-07-10T18:23:24.207Z,8.03
2018-07-10T18:25:53.669Z,5.20
2018-07-10T18:28:23.051Z,5.60
2018-07-10T18:30:52.396Z,5.70
2018-07-10T18:33:21.799Z,5.93
2018-07-10T18:35:51.163Z,7.57
2018-07-10T18:38:20.856Z,8.33
2018-07-10T18:40:50.142Z,11.13
2018-07-10T18:43:19.488Z,9.77
2018-07-10T18:45:48.956Z,9.20
2018-07-10T18:48:23.307Z,9.60
2018-07-10T18:50:52.724Z,16.90
2018-07-10T18:53:22.057Z,12.03
2018-07-10T18:55:52.287Z,14.23
2018-07-10T18:58:29.553Z,9.97
2018-07-10T19:01:02.674Z,14.67
2018-07-10T19:03:34.879Z,11.17
2018-07-10T19:06:11.632Z,19.33
2018-07-10T19:08:45.367Z,10.17
2018-07-10T19:11:17.525Z,29.63
2018-07-10T19:13:46.899Z,15.43
2018-07-10T19:16:16.250Z,13.33
2018-07-10T19:18:45.933Z,12.10
2018-07-10T19:21:28.113Z,12.80
2018-07-10T19:23:58.555Z,14.00
2018-07-10T19:26:29.275Z,15.17
2018-07-10T19:30:06.566Z,19.40
2018-07-10T19:32:36.361Z,14.17
2018-07-10T19:35:05.968Z,11.13
2018-07-10T19:37:37.173Z,12.17
2018-07-10T19:40:06.784Z,13.47
2018-07-10T19:42:39.184Z,16.97
2018-07-10T19:45:08.948Z,16.57
2018-07-10T19:47:38.317Z,15.90
2018-07-10T19:50:16.655Z,17.17
2018-07-10T19:52:49.559Z,18.17
2018-07-10T19:55:18.966Z,20.33
2018-07-10T19:58:07.829Z,13.40
2018-07-10T20:00:43.338Z,15.60
2018-07-10T20:03:24.146Z,20.50
2018-07-10T20:05:55.545Z,18.10
2018-07-10T20:08:24.695Z,19.53
2018-07-10T20:10:57.850Z,20.17
2018-07-10T20:13:48.573Z,16.97
2018-07-10T20:16:51.704Z,17.93
2018-07-10T20:20:01.701Z,20.57
2018-07-10T20:22:42.782Z,17.50
2018-07-10T20:25:17.571Z,28.90
2018-07-10T20:27:50.512Z,20.10
2018-07-10T20:30:42.210Z,17.67
2018-07-10T20:35:18.464Z,21.67
2018-07-10T20:37:48.990Z,14.10
2018-07-10T20:40:39.986Z,17.53
2018-07-10T20:43:15.056Z,16.83
2018-07-10T20:46:02.000Z,20.87
2018-07-10T20:48:42.458Z,23.23
2018-07-10T20:51:13.808Z,16.37
2018-07-10T20:53:52.621Z,18.10
2018-07-10T20:56:32.198Z,15.37
2018-07-10T20:59:42.576Z,27.00
2018-07-10T21:02:25.978Z,18.50
2018-07-10T21:05:13.815Z,24.83
2018-07-10T21:07:55.175Z,20.90
2018-07-10T21:10:59.268Z,17.60
2018-07-10T21:15:40.880Z,14.77
2018-07-10T21:18:22.984Z,13.90
2018-07-10T21:21:01.540Z,20.40
2018-07-10T21:23:41.015Z,17.33
2018-07-10T21:26:23.731Z,17.87
2018-07-10T21:28:55.904Z,18.33
2018-07-10T21:31:41.261Z,21.00
2018-07-10T21:34:15.242Z,20.40
2018-07-10T21:39:06.648Z,29.00
2018-07-10T21:41:47.663Z,25.70
2018-07-10T21:46:30.186Z,24.40
2018-07-10T21:50:05.465Z,24.17
2018-07-10T21:52:35.729Z,26.83
2018-07-10T21:55:06.119Z,30.53
2018-07-10T21:57:42.559Z,33.00
2018-07-10T22:00:12.488Z,31.70
2018-07-10T22:02:42.770Z,28.93
2018-07-10T22:05:13.039Z,33.73
2018-07-10T22:07:43.183Z,40.40
2018-07-10T22:10:13.484Z,30.67
2018-07-10T22:12:47.263Z,28.70
2018-07-10T22:15:17.429Z,33.80
2018-07-10T22:17:48.052Z,27.50
2018-07-10T22:20:17.652Z,35.03
2018-07-10T22:22:47.345Z,29.07
2018-07-10T22:25:16.919Z,29.03
2018-07-10T22:27:46.741Z,28.13
2018-07-10T22:30:21.744Z,30.27
2018-07-10T22:33:02.504Z,31.47
2018-07-10T22:35:32.105Z,28.50
2018-07-10T22:38:02.117Z,27.33
2018-07-10T22:40:32.277Z,27.83
2018-07-10T22:43:02.208Z,26.20
2018-07-10T22:45:32.485Z,34.67
2018-07-10T22:48:02.697Z,31.77
2018-07-10T22:50:32.717Z,25.20
2018-07-10T22:53:03.138Z,28.80
2018-07-10T22:55:33.537Z,26.83
2018-07-10T22:58:06.838Z,27.87
2018-07-10T23:00:40.443Z,25.90
2018-07-10T23:03:17.597Z,25.00
2018-07-10T23:05:48.782Z,29.67
2018-07-10T23:08:19.934Z,29.13
2018-07-10T23:10:50.001Z,22.87
2018-07-10T23:13:19.769Z,37.40
2018-07-10T23:15:49.695Z,25.53
2018-07-10T23:18:20.720Z,29.23
2018-07-10T23:20:50.315Z,31.53
2018-07-10T23:23:21.034Z,31.97
2018-07-10T23:25:51.115Z,34.50
2018-07-10T23:28:22.113Z,34.30
2018-07-10T23:30:51.500Z,35.90
2018-07-10T23:33:22.057Z,41.43
2018-07-10T23:35:55.202Z,41.63
2018-07-10T23:38:38.630Z,35.90
2018-07-10T23:41:13.469Z,29.90
2018-07-10T23:43:44.957Z,29.80
2018-07-10T23:46:20.277Z,32.13
2018-07-10T23:48:51.988Z,31.87
2018-07-10T23:51:21.122Z,30.57
2018-07-10T23:53:53.348Z,31.60
2018-07-10T23:56:22.844Z,34.80
2018-07-10T23:58:52.237Z,38.73
